Time;durP1;ratioP1;P1;durP2;ratioP2;P2;SDS_P1;SDS_P2;PMS_P1;PMS_P2;Temp;Humidity;BMP_temperature;BMP_pressure;BME280_temperature;BME280_humidity;BME280_pressure;Samples;Min_cycle;Max_cycle;Signal;HPM_P1;HPM_P2
2023/03/11 00:07:11;;;;;;;7.7;3.5;;;;;;;8.9;79.4;96210;;;;
2023/03/11 00:18:11;;;;;;;7.7;3.5;;;;;;;8.9;79.3;96210;;;;
2023/03/11 00:28:11;;;;;;;7.4;3.6;;;;;;;8.8;79.6;96200;;;;
2023/03/11 00:38:11;;;;;;;7.4;3.6;;;;;;;8.7;79.7;96190;;;;
2023/03/11 00:48:11;;;;;;;7.4;3.6;;;;;;;8.6;80.3;96190;;;;
2023/03/11 00:58:11;;;;;;;9.4;3.3;;;;;;;8.5;80.6;96190;;;;
2023/03/11 01:09:11;;;;;;;9.4;3.3;;;;;;;8.7;80.1;96180;;;;
2023/03/11 01:20:11;;;;;;;5.3;3.3;;;;;;;9;79;96170;;;;
2023/03/11 01:31:11;;;;;;;5.3;3.3;;;;;;;9;78.6;96180;;;;
2023/03/11 01:41:11;;;;;;;5.3;3.3;;;;;;;9;76.3;96170;;;;
2023/03/11 01:52:11;;;;;;;7.4;2.8;;;;;;;9.3;71.2;96170;;;;
2023/03/11 02:03:11;;;;;;;7.4;2.8;;;;;;;9.3;71.4;96180;;;;
2023/03/11 02:14:11;;;;;;;7.4;2.8;;;;;;;9.2;68.9;96190;;;;
2023/03/11 02:24:11;;;;;;;2.7;1.4;;;;;;;9;69.3;96180;;;;
2023/03/11 02:35:11;;;;;;;2.7;1.4;;;;;;;8.7;70.1;96190;;;;
2023/03/11 02:46:11;;;;;;;2.7;1.4;;;;;;;8.6;70.4;96200;;;;
2023/03/11 02:57:11;;;;;;;1.5;0.8;;;;;;;8.5;69;96200;;;;
2023/03/11 03:07:11;;;;;;;1.5;0.8;;;;;;;8.3;67.6;96200;;;;
2023/03/11 03:17:11;;;;;;;1.5;0.8;;;;;;;8.1;67.5;96200;;;;
2023/03/11 03:28:12;;;;;;;1.4;0.6;;;;;;;8;67.8;96200;;;;
2023/03/11 03:39:11;;;;;;;1.4;0.6;;;;;;;7.9;68.6;96200;;;;
2023/03/11 03:49:11;;;;;;;1.4;0.6;;;;;;;7.8;69.1;96210;;;;
2023/03/11 04:00:11;;;;;;;1;0.4;;;;;;;7.7;69;96200;;;;
2023/03/11 04:11:11;;;;;;;1;0.4;;;;;;;7.7;69.7;96190;;;;
2023/03/11 04:21:11;;;;;;;1.6;0.8;;;;;;;7.6;69.1;96190;;;;
2023/03/11 04:31:11;;;;;;;;;;;;;;;;;;;;;
2023/03/11 04:42:12;;;;;;;1.6;0.8;;;;;;;7.3;70.1;96180;;;;
2023/03/11 04:52:11;;;;;;;1.4;0.7;;;;;;;7.2;69.8;96190;;;;
2023/03/11 05:03:11;;;;;;;1.4;0.7;;;;;;;7.1;69.9;96190;;;;
2023/03/11 05:14:11;;;;;;;1.4;0.7;;;;;;;6.8;72.2;96190;;;;
2023/03/11 05:24:11;;;;;;;2.2;1.3;;;;;;;6.5;74.7;96190;;;;
2023/03/11 05:34:11;;;;;;;2.2;1.3;;;;;;;6.2;76.8;96190;;;;
2023/03/11 05:44:11;;;;;;;2.2;1.3;;;;;;;5.9;78.4;96200;;;;
2023/03/11 05:55:11;;;;;;;2.8;1.4;;;;;;;5.8;79.2;96210;;;;
2023/03/11 06:05:11;;;;;;;2.8;1.4;;;;;;;5.3;77.4;96270;;;;
2023/03/11 06:16:11;;;;;;;2.8;1.4;;;;;;;4.5;76.5;96260;;;;
2023/03/11 06:26:11;;;;;;;3.2;1.3;;;;;;;4.4;76.6;96310;;;;
2023/03/11 06:36:11;;;;;;;3.2;1.3;;;;;;;4.3;75.5;96320;;;;
2023/03/11 06:47:11;;;;;;;3.2;1.3;;;;;;;4.3;74.9;96330;;;;
2023/03/11 06:58:11;;;;;;;3.1;1.3;;;;;;;4.2;75.2;96360;;;;
2023/03/11 07:09:11;;;;;;;3.1;1.3;;;;;;;4.1;75.3;96390;;;;
2023/03/11 07:19:11;;;;;;;2.9;1.3;;;;;;;4.1;75.2;96400;;;;
2023/03/11 07:30:11;;;;;;;2.9;1.3;;;;;;;3.8;77.1;96420;;;;
2023/03/11 07:41:11;;;;;;;2.9;1.3;;;;;;;3.3;81.5;96440;;;;
2023/03/11 07:52:11;;;;;;;7.3;4.3;;;;;;;3.2;82.9;96450;;;;
2023/03/11 08:02:11;;;;;;;7.3;4.3;;;;;;;2.9;84.9;96470;;;;
2023/03/11 08:13:11;;;;;;;7.3;4.3;;;;;;;2.6;86.4;96480;;;;
2023/03/11 08:23:12;;;;;;;11.3;5;;;;;;;3;87.1;96480;;;;
2023/03/11 08:33:11;;;;;;;11.3;5;;;;;;;3.3;85.5;96480;;;;
2023/03/11 08:44:11;;;;;;;11.3;5;;;;;;;3.6;83.9;96500;;;;
2023/03/11 08:55:11;;;;;;;6.1;2.8;;;;;;;3.7;82.7;96520;;;;
2023/03/11 09:05:11;;;;;;;6.1;2.8;;;;;;;3.8;82.6;96520;;;;
2023/03/11 09:15:11;;;;;;;6.1;2.8;;;;;;;3.8;82.4;96530;;;;
2023/03/11 09:25:11;;;;;;;5.9;3.3;;;;;;;3.7;82.2;96560;;;;
2023/03/11 09:35:11;;;;;;;5.9;3.3;;;;;;;3.4;81.3;96560;;;;
2023/03/11 09:46:11;;;;;;;5.9;3.3;;;;;;;3.2;82.9;96590;;;;
2023/03/11 09:56:11;;;;;;;4.5;2.6;;;;;;;3.1;83;96600;;;;
2023/03/11 10:06:11;;;;;;;4.5;2.6;;;;;;;3;83.9;96610;;;;
2023/03/11 10:16:11;;;;;;;4.5;2.6;;;;;;;3.1;84.1;96630;;;;
2023/03/11 10:27:11;;;;;;;6.4;2.9;;;;;;;2.9;84.7;96650;;;;
2023/03/11 10:37:11;;;;;;;6.4;2.9;;;;;;;2.8;85.2;96670;;;;
2023/03/11 10:47:11;;;;;;;6.4;2.9;;;;;;;2.6;85.4;96680;;;;
2023/03/11 10:58:11;;;;;;;7.6;3.3;;;;;;;2.6;86.6;96690;;;;
2023/03/11 11:08:11;;;;;;;7.6;3.3;;;;;;;2.3;87.1;96720;;;;
2023/03/11 11:19:11;;;;;;;5.8;2.6;;;;;;;2.1;87.5;96740;;;;
2023/03/11 11:29:11;;;;;;;5.8;2.6;;;;;;;1.7;88.6;96760;;;;
2023/03/11 11:40:13;;;;;;;;;;;;;;;;;;;;;
2023/03/11 11:50:11;;;;;;;5.6;3.4;;;;;;;1.4;89.9;96790;;;;
2023/03/11 12:01:11;;;;;;;5.6;3.4;;;;;;;1.2;90.3;96810;;;;
2023/03/11 12:11:11;;;;;;;5.6;3.4;;;;;;;1.2;91;96830;;;;
2023/03/11 12:21:11;;;;;;;6.3;2.7;;;;;;;1.1;91.4;96870;;;;
2023/03/11 12:31:11;;;;;;;6.3;2.7;;;;;;;1;91.9;96900;;;;
2023/03/11 12:41:11;;;;;;;6.3;2.7;;;;;;;0.8;92.2;96940;;;;
2023/03/11 12:51:11;;;;;;;6;3;;;;;;;0.9;91.8;96980;;;;
2023/03/11 13:01:12;;;;;;;6;3;;;;;;;1;92;97010;;;;
2023/03/11 13:11:11;;;;;;;6;3;;;;;;;1;92.4;97020;;;;
2023/03/11 13:21:12;;;;;;;;;;;;;;;;;;;;;
2023/03/11 13:31:11;;;;;;;6.7;3.5;;;;;;;1.2;90.5;97090;;;;
2023/03/11 13:41:11;;;;;;;6.7;3.5;;;;;;;1.4;90.9;97110;;;;
2023/03/11 13:51:11;;;;;;;6.6;4.2;;;;;;;1.3;91.3;97140;;;;
2023/03/11 14:01:11;;;;;;;6.6;4.2;;;;;;;1.1;91.4;97160;;;;
2023/03/11 14:12:11;;;;;;;6.6;4.2;;;;;;;1.1;91.3;97200;;;;
2023/03/11 14:22:11;;;;;;;8.8;4.1;;;;;;;1;91.1;97230;;;;
2023/03/11 14:32:11;;;;;;;8.8;4.1;;;;;;;0.8;89.7;97250;;;;
2023/03/11 14:43:11;;;;;;;8.8;4.1;;;;;;;0.8;90;97270;;;;
2023/03/11 14:53:12;;;;;;;6.1;3.2;;;;;;;0.7;90.2;97290;;;;
2023/03/11 15:03:12;;;;;;;6.1;3.2;;;;;;;0.6;90.8;97310;;;;
2023/03/11 15:13:11;;;;;;;6.1;3.2;;;;;;;0.6;90.8;97330;;;;
2023/03/11 15:24:11;;;;;;;6.9;3.7;;;;;;;0.5;90.9;97350;;;;
2023/03/11 15:34:11;;;;;;;6.9;3.7;;;;;;;0.6;91.8;97380;;;;
2023/03/11 15:44:11;;;;;;;6.9;3.7;;;;;;;0.6;92.3;97390;;;;
2023/03/11 15:54:11;;;;;;;11.7;6.5;;;;;;;0.7;92.7;97400;;;;
2023/03/11 16:05:11;;;;;;;11.7;6.5;;;;;;;0.6;92.3;97410;;;;
2023/03/11 16:15:11;;;;;;;11.7;6.5;;;;;;;0.6;92.2;97440;;;;
2023/03/11 16:25:11;;;;;;;15.4;9;;;;;;;0.6;92.6;97450;;;;
2023/03/11 16:36:11;;;;;;;15.4;9;;;;;;;0.6;92.6;97470;;;;
2023/03/11 16:46:11;;;;;;;15.4;9;;;;;;;0.6;92.5;97490;;;;
2023/03/11 16:56:11;;;;;;;27.5;14.6;;;;;;;0.4;92.4;97520;;;;
2023/03/11 17:07:11;;;;;;;27.5;14.6;;;;;;;0.4;92;97550;;;;
2023/03/11 17:18:12;;;;;;;28.5;16.1;;;;;;;0.3;92.1;97570;;;;
2023/03/11 17:28:12;;;;;;;28.5;16.1;;;;;;;0.3;91.8;97590;;;;
2023/03/11 17:38:11;;;;;;;28.5;16.1;;;;;;;0.2;91.5;97610;;;;
2023/03/11 17:48:11;;;;;;;22;13.7;;;;;;;0.2;90.6;97630;;;;
2023/03/11 17:59:11;;;;;;;22;13.7;;;;;;;0.2;89.8;97650;;;;
2023/03/11 18:09:12;;;;;;;22;13.7;;;;;;;0.1;87.7;97680;;;;
2023/03/11 18:20:12;;;;;;;19;10.3;;;;;;;0;88.8;97720;;;;
2023/03/11 18:31:12;;;;;;;19;10.3;;;;;;;-0.1;90.4;97740;;;;
2023/03/11 18:41:11;;;;;;;19;10.3;;;;;;;-0.1;90.2;97750;;;;
2023/03/11 18:51:12;;;;;;;16.3;9.1;;;;;;;-0.1;88.1;97780;;;;
2023/03/11 19:01:12;;;;;;;16.3;9.1;;;;;;;-0.1;87.7;97790;;;;
2023/03/11 19:12:11;;;;;;;16.3;9.1;;;;;;;-0.1;87.9;97810;;;;
2023/03/11 19:22:12;;;;;;;28.4;17.5;;;;;;;-0.1;88.3;97830;;;;
2023/03/11 19:32:12;;;;;;;28.4;17.5;;;;;;;-0.1;87.5;97860;;;;
2023/03/11 19:42:12;;;;;;;28.4;17.5;;;;;;;-0.2;87.9;97870;;;;
2023/03/11 19:53:12;;;;;;;30;19;;;;;;;-0.2;88.6;97890;;;;
2023/03/11 20:03:12;;;;;;;30;19;;;;;;;-0.3;89.3;97900;;;;
2023/03/11 20:14:12;;;;;;;30;19;;;;;;;-0.4;89.7;97920;;;;
2023/03/11 20:24:12;;;;;;;33;18.7;;;;;;;-0.5;88.6;97930;;;;
2023/03/11 20:34:12;;;;;;;33;18.7;;;;;;;-0.7;87.9;97930;;;;
2023/03/11 20:45:12;;;;;;;33;18.7;;;;;;;-0.8;88.1;97940;;;;
2023/03/11 20:55:12;;;;;;;38.1;17.9;;;;;;;-0.9;87.6;97950;;;;
2023/03/11 21:06:12;;;;;;;38.1;17.9;;;;;;;-1;87.8;97960;;;;
2023/03/11 21:17:12;;;;;;;35.4;19.3;;;;;;;-1.1;88.4;97950;;;;
2023/03/11 21:27:12;;;;;;;35.4;19.3;;;;;;;-0.9;88.7;97950;;;;
2023/03/11 21:38:12;;;;;;;35.4;19.3;;;;;;;-0.7;88.8;97960;;;;
2023/03/11 21:48:12;;;;;;;41.4;21.9;;;;;;;-0.6;89.2;97970;;;;
2023/03/11 21:58:12;;;;;;;41.4;21.9;;;;;;;-0.5;89.2;97980;;;;
2023/03/11 22:08:13;;;;;;;41.4;21.9;;;;;;;-0.4;88.8;98000;;;;
2023/03/11 22:19:12;;;;;;;47.7;24.3;;;;;;;-0.4;88;98010;;;;
2023/03/11 22:29:12;;;;;;;47.7;24.3;;;;;;;-0.4;88.1;98020;;;;
2023/03/11 22:39:12;;;;;;;47.7;24.3;;;;;;;-0.4;88;98020;;;;
2023/03/11 22:49:12;;;;;;;40.9;20.7;;;;;;;-0.3;87.7;98030;;;;
2023/03/11 23:00:15;;;;;;;40.9;20.7;;;;;;;-0.3;87.7;98030;;;;
2023/03/11 23:11:12;;;;;;;40.9;20.7;;;;;;;-0.2;88;98040;;;;
2023/03/11 23:21:12;;;;;;;47.6;26.2;;;;;;;-0.2;87.4;98040;;;;
2023/03/11 23:32:12;;;;;;;47.6;26.2;;;;;;;-0.3;87.5;98050;;;;
2023/03/11 23:42:12;;;;;;;47.6;26.2;;;;;;;-0.3;87.4;98050;;;;
2023/03/11 23:53:12;;;;;;;44.5;24.2;;;;;;;-0.4;87.5;98060;;;;
